sensor_id;sensor_type;location;lat;lon;timestamp;P1;durP1;ratioP1;P2;durP2;ratioP2
33074;SDS011;19433;51.292;6.868;2022-09-09T00:03:50;0.90;;;0.90;;
33074;SDS011;19433;51.292;6.868;2022-09-09T00:06:27;1.00;;;1.00;;
33074;SDS011;19433;51.292;6.868;2022-09-09T00:08:59;3.37;;;0.90;;
33074;SDS011;19433;51.292;6.868;2022-09-09T00:11:34;4.13;;;0.93;;
33074;SDS011;19433;51.292;6.868;2022-09-09T00:14:08;2.30;;;1.40;;
33074;SDS011;19433;51.292;6.868;2022-09-09T00:16:47;3.60;;;1.00;;
33074;SDS011;19433;51.292;6.868;2022-09-09T00:19:30;2.77;;;0.70;;
33074;SDS011;19433;51.292;6.868;2022-09-09T00:22:16;3.77;;;1.13;;
33074;SDS011;19433;51.292;6.868;2022-09-09T00:24:48;1.00;;;0.80;;
33074;SDS011;19433;51.292;6.868;2022-09-09T00:32:27;1.37;;;1.27;;
33074;SDS011;19433;51.292;6.868;2022-09-09T00:34:55;1.27;;;0.67;;
33074;SDS011;19433;51.292;6.868;2022-09-09T00:37:26;2.70;;;0.70;;
33074;SDS011;19433;51.292;6.868;2022-09-09T00:39:57;2.77;;;0.93;;
33074;SDS011;19433;51.292;6.868;2022-09-09T00:42:40;1.27;;;1.07;;
33074;SDS011;19433;51.292;6.868;2022-09-09T00:48:17;0.93;;;0.83;;
33074;SDS011;19433;51.292;6.868;2022-09-09T00:50:47;0.83;;;0.83;;
33074;SDS011;19433;51.292;6.868;2022-09-09T00:56:21;1.17;;;0.83;;
33074;SDS011;19433;51.292;6.868;2022-09-09T01:01:52;1.53;;;0.90;;
33074;SDS011;19433;51.292;6.868;2022-09-09T01:04:21;0.80;;;0.80;;
33074;SDS011;19433;51.292;6.868;2022-09-09T01:06:59;1.23;;;0.90;;
33074;SDS011;19433;51.292;6.868;2022-09-09T01:09:38;2.23;;;1.57;;
33074;SDS011;19433;51.292;6.868;2022-09-09T01:15:08;1.13;;;1.13;;
33074;SDS011;19433;51.292;6.868;2022-09-09T01:20:19;1.50;;;1.30;;
33074;SDS011;19433;51.292;6.868;2022-09-09T01:22:59;1.53;;;0.93;;
33074;SDS011;19433;51.292;6.868;2022-09-09T01:25:56;2.27;;;1.00;;
33074;SDS011;19433;51.292;6.868;2022-09-09T01:28:23;1.20;;;1.10;;
33074;SDS011;19433;51.292;6.868;2022-09-09T01:30:52;1.57;;;0.90;;
33074;SDS011;19433;51.292;6.868;2022-09-09T01:33:19;2.23;;;1.40;;
33074;SDS011;19433;51.292;6.868;2022-09-09T01:35:57;2.10;;;1.30;;
33074;SDS011;19433;51.292;6.868;2022-09-09T01:38:25;0.83;;;0.83;;
33074;SDS011;19433;51.292;6.868;2022-09-09T01:40:52;1.20;;;1.13;;
33074;SDS011;19433;51.292;6.868;2022-09-09T01:43:19;1.20;;;1.10;;
33074;SDS011;19433;51.292;6.868;2022-09-09T01:45:45;2.10;;;1.10;;
33074;SDS011;19433;51.292;6.868;2022-09-09T01:48:14;3.13;;;1.10;;
33074;SDS011;19433;51.292;6.868;2022-09-09T01:50:40;2.70;;;1.20;;
33074;SDS011;19433;51.292;6.868;2022-09-09T01:53:06;1.93;;;1.73;;
33074;SDS011;19433;51.292;6.868;2022-09-09T01:55:33;1.87;;;1.20;;
33074;SDS011;19433;51.292;6.868;2022-09-09T02:00:59;2.50;;;1.27;;
33074;SDS011;19433;51.292;6.868;2022-09-09T02:03:29;1.80;;;1.40;;
33074;SDS011;19433;51.292;6.868;2022-09-09T02:06:14;1.60;;;1.50;;
33074;SDS011;19433;51.292;6.868;2022-09-09T02:08:46;2.53;;;1.27;;
33074;SDS011;19433;51.292;6.868;2022-09-09T02:11:15;4.60;;;2.23;;
33074;SDS011;19433;51.292;6.868;2022-09-09T02:13:43;2.13;;;1.20;;
33074;SDS011;19433;51.292;6.868;2022-09-09T02:17:11;1.20;;;1.03;;
33074;SDS011;19433;51.292;6.868;2022-09-09T02:19:08;1.50;;;1.40;;
33074;SDS011;19433;51.292;6.868;2022-09-09T02:21:39;1.43;;;1.30;;
33074;SDS011;19433;51.292;6.868;2022-09-09T02:24:07;1.13;;;1.03;;
33074;SDS011;19433;51.292;6.868;2022-09-09T02:26:35;1.07;;;0.97;;
33074;SDS011;19433;51.292;6.868;2022-09-09T02:29:05;1.10;;;0.87;;
33074;SDS011;19433;51.292;6.868;2022-09-09T02:31:34;1.77;;;1.20;;
33074;SDS011;19433;51.292;6.868;2022-09-09T02:34:02;1.63;;;1.30;;
33074;SDS011;19433;51.292;6.868;2022-09-09T02:36:31;1.20;;;1.10;;
33074;SDS011;19433;51.292;6.868;2022-09-09T02:38:59;3.17;;;1.40;;
33074;SDS011;19433;51.292;6.868;2022-09-09T02:41:32;1.40;;;1.27;;
33074;SDS011;19433;51.292;6.868;2022-09-09T02:43:59;2.77;;;1.40;;
33074;SDS011;19433;51.292;6.868;2022-09-09T02:46:29;3.70;;;1.60;;
33074;SDS011;19433;51.292;6.868;2022-09-09T02:49:14;1.83;;;1.30;;
33074;SDS011;19433;51.292;6.868;2022-09-09T02:52:01;2.07;;;1.30;;
33074;SDS011;19433;51.292;6.868;2022-09-09T02:54:31;1.87;;;1.50;;
33074;SDS011;19433;51.292;6.868;2022-09-09T02:57:10;3.27;;;1.60;;
33074;SDS011;19433;51.292;6.868;2022-09-09T02:59:47;5.90;;;1.87;;
33074;SDS011;19433;51.292;6.868;2022-09-09T03:02:13;2.37;;;1.30;;
33074;SDS011;19433;51.292;6.868;2022-09-09T03:04:39;1.53;;;1.40;;
33074;SDS011;19433;51.292;6.868;2022-09-09T03:07:04;1.43;;;1.33;;
33074;SDS011;19433;51.292;6.868;2022-09-09T03:09:31;1.60;;;1.00;;
33074;SDS011;19433;51.292;6.868;2022-09-09T03:11:59;1.93;;;1.10;;
33074;SDS011;19433;51.292;6.868;2022-09-09T03:14:25;1.03;;;0.90;;
33074;SDS011;19433;51.292;6.868;2022-09-09T03:16:51;0.83;;;0.83;;
33074;SDS011;19433;51.292;6.868;2022-09-09T03:19:17;1.93;;;1.13;;
33074;SDS011;19433;51.292;6.868;2022-09-09T03:21:43;2.30;;;1.50;;
33074;SDS011;19433;51.292;6.868;2022-09-09T03:24:09;2.80;;;1.20;;
33074;SDS011;19433;51.292;6.868;2022-09-09T03:26:34;1.67;;;1.50;;
33074;SDS011;19433;51.292;6.868;2022-09-09T03:29:00;1.90;;;1.27;;
33074;SDS011;19433;51.292;6.868;2022-09-09T03:31:26;1.13;;;1.03;;
33074;SDS011;19433;51.292;6.868;2022-09-09T03:33:55;3.00;;;1.23;;
33074;SDS011;19433;51.292;6.868;2022-09-09T03:36:20;1.67;;;1.40;;
33074;SDS011;19433;51.292;6.868;2022-09-09T03:38:46;1.53;;;1.17;;
33074;SDS011;19433;51.292;6.868;2022-09-09T03:41:12;1.13;;;1.03;;
33074;SDS011;19433;51.292;6.868;2022-09-09T03:43:37;1.43;;;0.90;;
33074;SDS011;19433;51.292;6.868;2022-09-09T03:46:03;1.57;;;1.03;;
33074;SDS011;19433;51.292;6.868;2022-09-09T03:48:28;2.30;;;1.20;;
33074;SDS011;19433;51.292;6.868;2022-09-09T03:50:54;2.40;;;1.50;;
33074;SDS011;19433;51.292;6.868;2022-09-09T03:53:22;3.17;;;1.27;;
33074;SDS011;19433;51.292;6.868;2022-09-09T03:55:50;1.53;;;1.10;;
33074;SDS011;19433;51.292;6.868;2022-09-09T03:58:19;2.40;;;1.80;;
33074;SDS011;19433;51.292;6.868;2022-09-09T04:03:24;1.73;;;1.17;;
33074;SDS011;19433;51.292;6.868;2022-09-09T04:05:51;2.30;;;1.20;;
33074;SDS011;19433;51.292;6.868;2022-09-09T04:08:17;1.30;;;1.20;;
33074;SDS011;19433;51.292;6.868;2022-09-09T04:10:44;2.93;;;1.60;;
33074;SDS011;19433;51.292;6.868;2022-09-09T04:13:11;1.90;;;1.23;;
33074;SDS011;19433;51.292;6.868;2022-09-09T04:15:39;1.30;;;1.20;;
33074;SDS011;19433;51.292;6.868;2022-09-09T04:18:04;1.83;;;1.00;;
33074;SDS011;19433;51.292;6.868;2022-09-09T04:20:30;1.90;;;1.20;;
33074;SDS011;19433;51.292;6.868;2022-09-09T04:22:55;1.40;;;1.30;;
33074;SDS011;19433;51.292;6.868;2022-09-09T04:25:20;3.13;;;1.83;;
33074;SDS011;19433;51.292;6.868;2022-09-09T04:27:46;3.40;;;1.30;;
33074;SDS011;19433;51.292;6.868;2022-09-09T04:30:12;4.43;;;1.97;;
33074;SDS011;19433;51.292;6.868;2022-09-09T04:32:37;2.87;;;1.47;;
33074;SDS011;19433;51.292;6.868;2022-09-09T04:35:03;2.20;;;1.30;;
33074;SDS011;19433;51.292;6.868;2022-09-09T04:37:28;1.60;;;1.50;;
33074;SDS011;19433;51.292;6.868;2022-09-09T04:39:53;2.43;;;1.40;;
33074;SDS011;19433;51.292;6.868;2022-09-09T04:42:19;1.77;;;1.50;;
33074;SDS011;19433;51.292;6.868;2022-09-09T04:44:44;2.40;;;1.40;;
33074;SDS011;19433;51.292;6.868;2022-09-09T04:47:10;1.37;;;1.27;;
33074;SDS011;19433;51.292;6.868;2022-09-09T04:49:36;2.20;;;1.50;;
33074;SDS011;19433;51.292;6.868;2022-09-09T04:52:02;2.50;;;2.30;;
33074;SDS011;19433;51.292;6.868;2022-09-09T04:54:28;2.80;;;1.40;;
33074;SDS011;19433;51.292;6.868;2022-09-09T04:56:54;2.07;;;1.20;;
33074;SDS011;19433;51.292;6.868;2022-09-09T04:59:19;3.27;;;2.00;;
33074;SDS011;19433;51.292;6.868;2022-09-09T05:01:45;2.53;;;1.50;;
33074;SDS011;19433;51.292;6.868;2022-09-09T05:04:10;4.63;;;1.70;;
33074;SDS011;19433;51.292;6.868;2022-09-09T05:06:36;1.87;;;1.30;;
33074;SDS011;19433;51.292;6.868;2022-09-09T05:09:02;3.90;;;1.43;;
33074;SDS011;19433;51.292;6.868;2022-09-09T05:11:28;4.57;;;1.47;;
33074;SDS011;19433;51.292;6.868;2022-09-09T05:13:55;3.37;;;1.50;;
33074;SDS011;19433;51.292;6.868;2022-09-09T05:16:21;3.43;;;1.37;;
33074;SDS011;19433;51.292;6.868;2022-09-09T05:18:48;3.17;;;1.37;;
33074;SDS011;19433;51.292;6.868;2022-09-09T05:21:17;1.70;;;1.30;;
33074;SDS011;19433;51.292;6.868;2022-09-09T05:23:44;3.20;;;1.10;;
33074;SDS011;19433;51.292;6.868;2022-09-09T05:26:14;2.30;;;1.10;;
33074;SDS011;19433;51.292;6.868;2022-09-09T05:28:41;2.47;;;1.47;;
33074;SDS011;19433;51.292;6.868;2022-09-09T05:31:07;2.10;;;1.57;;
33074;SDS011;19433;51.292;6.868;2022-09-09T05:33:34;2.20;;;1.30;;
33074;SDS011;19433;51.292;6.868;2022-09-09T05:36:07;1.93;;;1.20;;
33074;SDS011;19433;51.292;6.868;2022-09-09T05:38:33;2.63;;;1.53;;
33074;SDS011;19433;51.292;6.868;2022-09-09T05:41:00;4.70;;;2.17;;
33074;SDS011;19433;51.292;6.868;2022-09-09T05:43:27;2.23;;;1.67;;
33074;SDS011;19433;51.292;6.868;2022-09-09T05:48:27;1.93;;;1.40;;
33074;SDS011;19433;51.292;6.868;2022-09-09T05:50:53;1.90;;;1.80;;
33074;SDS011;19433;51.292;6.868;2022-09-09T05:53:19;4.43;;;1.47;;
33074;SDS011;19433;51.292;6.868;2022-09-09T05:55:45;2.20;;;1.20;;
33074;SDS011;19433;51.292;6.868;2022-09-09T05:58:10;1.50;;;1.40;;
33074;SDS011;19433;51.292;6.868;2022-09-09T06:00:36;1.60;;;1.50;;
33074;SDS011;19433;51.292;6.868;2022-09-09T06:03:02;3.00;;;2.00;;
33074;SDS011;19433;51.292;6.868;2022-09-09T06:05:29;4.53;;;1.73;;
33074;SDS011;19433;51.292;6.868;2022-09-09T06:07:55;2.40;;;1.50;;
33074;SDS011;19433;51.292;6.868;2022-09-09T06:10:20;3.43;;;1.80;;
33074;SDS011;19433;51.292;6.868;2022-09-09T06:12:46;3.43;;;2.07;;
33074;SDS011;19433;51.292;6.868;2022-09-09T06:15:11;1.80;;;1.37;;
33074;SDS011;19433;51.292;6.868;2022-09-09T06:17:37;5.23;;;2.17;;
33074;SDS011;19433;51.292;6.868;2022-09-09T06:20:04;2.40;;;1.60;;
33074;SDS011;19433;51.292;6.868;2022-09-09T06:22:30;1.97;;;1.57;;
33074;SDS011;19433;51.292;6.868;2022-09-09T06:24:55;2.83;;;1.90;;
33074;SDS011;19433;51.292;6.868;2022-09-09T06:27:20;3.80;;;2.00;;
33074;SDS011;19433;51.292;6.868;2022-09-09T06:29:46;3.27;;;2.20;;
33074;SDS011;19433;51.292;6.868;2022-09-09T06:32:11;2.10;;;1.87;;
33074;SDS011;19433;51.292;6.868;2022-09-09T06:34:36;1.60;;;1.50;;
33074;SDS011;19433;51.292;6.868;2022-09-09T06:37:01;4.47;;;2.60;;
33074;SDS011;19433;51.292;6.868;2022-09-09T06:39:27;2.90;;;1.60;;
33074;SDS011;19433;51.292;6.868;2022-09-09T06:41:52;3.47;;;1.90;;
33074;SDS011;19433;51.292;6.868;2022-09-09T06:44:18;1.40;;;1.30;;
33074;SDS011;19433;51.292;6.868;2022-09-09T06:46:44;2.30;;;1.10;;
33074;SDS011;19433;51.292;6.868;2022-09-09T06:49:09;3.23;;;1.47;;
33074;SDS011;19433;51.292;6.868;2022-09-09T06:51:35;3.70;;;1.80;;
33074;SDS011;19433;51.292;6.868;2022-09-09T06:54:03;3.80;;;1.83;;
33074;SDS011;19433;51.292;6.868;2022-09-09T06:56:30;4.03;;;1.77;;
33074;SDS011;19433;51.292;6.868;2022-09-09T06:58:58;2.40;;;1.60;;
33074;SDS011;19433;51.292;6.868;2022-09-09T07:01:26;2.23;;;1.13;;
33074;SDS011;19433;51.292;6.868;2022-09-09T07:03:54;4.40;;;1.70;;
33074;SDS011;19433;51.292;6.868;2022-09-09T07:06:21;3.83;;;1.40;;
33074;SDS011;19433;51.292;6.868;2022-09-09T07:08:52;1.67;;;1.17;;
33074;SDS011;19433;51.292;6.868;2022-09-09T07:11:20;2.20;;;1.17;;
33074;SDS011;19433;51.292;6.868;2022-09-09T07:13:47;2.13;;;1.30;;
33074;SDS011;19433;51.292;6.868;2022-09-09T07:16:15;1.83;;;1.00;;
33074;SDS011;19433;51.292;6.868;2022-09-09T07:18:42;1.53;;;1.40;;
33074;SDS011;19433;51.292;6.868;2022-09-09T07:21:09;2.37;;;0.90;;
33074;SDS011;19433;51.292;6.868;2022-09-09T07:23:36;2.13;;;1.03;;
33074;SDS011;19433;51.292;6.868;2022-09-09T07:26:06;1.27;;;0.87;;
33074;SDS011;19433;51.292;6.868;2022-09-09T07:28:33;3.13;;;0.83;;
33074;SDS011;19433;51.292;6.868;2022-09-09T07:31:00;3.80;;;2.27;;
33074;SDS011;19433;51.292;6.868;2022-09-09T07:33:27;4.47;;;1.40;;
33074;SDS011;19433;51.292;6.868;2022-09-09T07:36:01;3.80;;;1.30;;
33074;SDS011;19433;51.292;6.868;2022-09-09T07:38:29;2.07;;;1.07;;
33074;SDS011;19433;51.292;6.868;2022-09-09T07:41:02;3.43;;;0.93;;
33074;SDS011;19433;51.292;6.868;2022-09-09T07:43:33;2.27;;;1.00;;
33074;SDS011;19433;51.292;6.868;2022-09-09T07:45:59;5.03;;;1.70;;
33074;SDS011;19433;51.292;6.868;2022-09-09T07:48:26;3.13;;;1.13;;
33074;SDS011;19433;51.292;6.868;2022-09-09T07:50:51;3.57;;;1.20;;
33074;SDS011;19433;51.292;6.868;2022-09-09T07:53:17;2.50;;;1.13;;
33074;SDS011;19433;51.292;6.868;2022-09-09T07:55:42;5.67;;;1.73;;
33074;SDS011;19433;51.292;6.868;2022-09-09T07:58:08;1.00;;;0.80;;
33074;SDS011;19433;51.292;6.868;2022-09-09T08:00:33;2.90;;;1.27;;
33074;SDS011;19433;51.292;6.868;2022-09-09T08:02:58;1.70;;;1.20;;
33074;SDS011;19433;51.292;6.868;2022-09-09T08:05:26;4.40;;;1.60;;
33074;SDS011;19433;51.292;6.868;2022-09-09T08:07:52;3.90;;;1.37;;
33074;SDS011;19433;51.292;6.868;2022-09-09T08:10:17;2.17;;;1.40;;
33074;SDS011;19433;51.292;6.868;2022-09-09T08:12:43;5.00;;;1.50;;
33074;SDS011;19433;51.292;6.868;2022-09-09T08:15:08;2.67;;;1.33;;
33074;SDS011;19433;51.292;6.868;2022-09-09T08:17:33;4.17;;;1.37;;
33074;SDS011;19433;51.292;6.868;2022-09-09T08:19:59;2.77;;;1.43;;
33074;SDS011;19433;51.292;6.868;2022-09-09T08:22:28;1.33;;;0.93;;
33074;SDS011;19433;51.292;6.868;2022-09-09T08:24:54;3.90;;;1.43;;
33074;SDS011;19433;51.292;6.868;2022-09-09T08:27:19;4.33;;;1.40;;
33074;SDS011;19433;51.292;6.868;2022-09-09T08:29:44;5.07;;;1.37;;
33074;SDS011;19433;51.292;6.868;2022-09-09T08:32:10;4.10;;;1.60;;
33074;SDS011;19433;51.292;6.868;2022-09-09T08:34:35;3.00;;;1.30;;
33074;SDS011;19433;51.292;6.868;2022-09-09T08:37:00;2.50;;;1.40;;
33074;SDS011;19433;51.292;6.868;2022-09-09T08:39:26;1.40;;;1.00;;
33074;SDS011;19433;51.292;6.868;2022-09-09T08:44:54;1.97;;;1.00;;
33074;SDS011;19433;51.292;6.868;2022-09-09T08:50:28;2.77;;;1.00;;
33074;SDS011;19433;51.292;6.868;2022-09-09T08:53:01;2.17;;;0.93;;
33074;SDS011;19433;51.292;6.868;2022-09-09T08:58:35;4.40;;;1.30;;
33074;SDS011;19433;51.292;6.868;2022-09-09T09:01:10;5.20;;;1.10;;
33074;SDS011;19433;51.292;6.868;2022-09-09T09:04:02;1.67;;;1.00;;
33074;SDS011;19433;51.292;6.868;2022-09-09T09:12:26;2.30;;;1.00;;
33074;SDS011;19433;51.292;6.868;2022-09-09T09:14:54;1.27;;;0.90;;
33074;SDS011;19433;51.292;6.868;2022-09-09T09:17:24;1.90;;;1.13;;
33074;SDS011;19433;51.292;6.868;2022-09-09T09:19:52;2.80;;;1.80;;
33074;SDS011;19433;51.292;6.868;2022-09-09T09:24:52;3.63;;;1.80;;
33074;SDS011;19433;51.292;6.868;2022-09-09T09:27:25;3.27;;;1.30;;
33074;SDS011;19433;51.292;6.868;2022-09-09T09:29:53;2.07;;;1.20;;
33074;SDS011;19433;51.292;6.868;2022-09-09T09:32:22;4.80;;;1.60;;
33074;SDS011;19433;51.292;6.868;2022-09-09T09:34:51;2.97;;;1.30;;
33074;SDS011;19433;51.292;6.868;2022-09-09T09:37:28;2.23;;;1.10;;
33074;SDS011;19433;51.292;6.868;2022-09-09T09:40:07;2.60;;;1.43;;
33074;SDS011;19433;51.292;6.868;2022-09-09T09:42:34;4.00;;;1.40;;
33074;SDS011;19433;51.292;6.868;2022-09-09T09:45:15;2.57;;;1.00;;
33074;SDS011;19433;51.292;6.868;2022-09-09T09:48:00;3.60;;;1.10;;
33074;SDS011;19433;51.292;6.868;2022-09-09T09:50:27;2.97;;;1.10;;
33074;SDS011;19433;51.292;6.868;2022-09-09T09:52:56;1.30;;;1.00;;
33074;SDS011;19433;51.292;6.868;2022-09-09T09:55:27;1.90;;;0.80;;
33074;SDS011;19433;51.292;6.868;2022-09-09T09:58:00;1.53;;;0.90;;
33074;SDS011;19433;51.292;6.868;2022-09-09T10:00:28;2.40;;;0.63;;
33074;SDS011;19433;51.292;6.868;2022-09-09T10:02:53;2.47;;;0.90;;
33074;SDS011;19433;51.292;6.868;2022-09-09T10:05:20;1.40;;;0.80;;
33074;SDS011;19433;51.292;6.868;2022-09-09T10:07:47;0.80;;;0.70;;
33074;SDS011;19433;51.292;6.868;2022-09-09T10:10:26;2.77;;;0.97;;
33074;SDS011;19433;51.292;6.868;2022-09-09T10:15:46;1.17;;;0.83;;
33074;SDS011;19433;51.292;6.868;2022-09-09T10:24:15;2.70;;;0.90;;
33074;SDS011;19433;51.292;6.868;2022-09-09T10:27:14;2.67;;;0.83;;
33074;SDS011;19433;51.292;6.868;2022-09-09T10:29:48;1.10;;;0.90;;
33074;SDS011;19433;51.292;6.868;2022-09-09T10:37:41;2.00;;;1.03;;
33074;SDS011;19433;51.292;6.868;2022-09-09T10:40:32;1.83;;;0.80;;
33074;SDS011;19433;51.292;6.868;2022-09-09T10:43:12;0.70;;;0.60;;
33074;SDS011;19433;51.292;6.868;2022-09-09T10:51:45;2.80;;;1.00;;
33074;SDS011;19433;51.292;6.868;2022-09-09T10:57:46;1.80;;;0.70;;
33074;SDS011;19433;51.292;6.868;2022-09-09T11:02:39;2.77;;;1.00;;
33074;SDS011;19433;51.292;6.868;2022-09-09T11:05:09;1.13;;;0.63;;
33074;SDS011;19433;51.292;6.868;2022-09-09T11:07:42;2.40;;;1.00;;
33074;SDS011;19433;51.292;6.868;2022-09-09T11:12:46;1.47;;;0.67;;
33074;SDS011;19433;51.292;6.868;2022-09-09T11:17:52;1.53;;;0.90;;
33074;SDS011;19433;51.292;6.868;2022-09-09T11:20:21;2.00;;;0.70;;
33074;SDS011;19433;51.292;6.868;2022-09-09T11:25:25;0.70;;;0.70;;
33074;SDS011;19433;51.292;6.868;2022-09-09T11:28:04;1.57;;;0.90;;
33074;SDS011;19433;51.292;6.868;2022-09-09T11:36:45;2.63;;;0.90;;
33074;SDS011;19433;51.292;6.868;2022-09-09T11:39:47;0.73;;;0.70;;
33074;SDS011;19433;51.292;6.868;2022-09-09T11:42:25;1.17;;;0.90;;
33074;SDS011;19433;51.292;6.868;2022-09-09T11:44:50;1.80;;;0.83;;
33074;SDS011;19433;51.292;6.868;2022-09-09T11:47:26;1.20;;;0.73;;
33074;SDS011;19433;51.292;6.868;2022-09-09T11:52:40;1.00;;;0.83;;
33074;SDS011;19433;51.292;6.868;2022-09-09T11:55:32;0.80;;;0.80;;
33074;SDS011;19433;51.292;6.868;2022-09-09T12:00:43;3.70;;;0.87;;
33074;SDS011;19433;51.292;6.868;2022-09-09T12:03:31;0.90;;;0.70;;
33074;SDS011;19433;51.292;6.868;2022-09-09T12:06:13;1.60;;;0.93;;
33074;SDS011;19433;51.292;6.868;2022-09-09T12:08:46;1.77;;;0.80;;
33074;SDS011;19433;51.292;6.868;2022-09-09T12:11:27;1.20;;;0.73;;
33074;SDS011;19433;51.292;6.868;2022-09-09T12:13:55;2.63;;;0.80;;
33074;SDS011;19433;51.292;6.868;2022-09-09T12:16:33;1.10;;;0.63;;
33074;SDS011;19433;51.292;6.868;2022-09-09T12:19:04;1.37;;;0.80;;
33074;SDS011;19433;51.292;6.868;2022-09-09T12:21:34;1.13;;;0.90;;
33074;SDS011;19433;51.292;6.868;2022-09-09T12:24:10;4.97;;;2.07;;
33074;SDS011;19433;51.292;6.868;2022-09-09T12:29:26;2.30;;;1.07;;
33074;SDS011;19433;51.292;6.868;2022-09-09T12:32:11;1.70;;;0.80;;
33074;SDS011;19433;51.292;6.868;2022-09-09T12:34:42;1.23;;;0.83;;
33074;SDS011;19433;51.292;6.868;2022-09-09T12:39:59;2.67;;;0.73;;
33074;SDS011;19433;51.292;6.868;2022-09-09T12:42:27;1.67;;;0.80;;
33074;SDS011;19433;51.292;6.868;2022-09-09T12:44:53;1.90;;;0.90;;
33074;SDS011;19433;51.292;6.868;2022-09-09T12:47:28;3.90;;;0.90;;
33074;SDS011;19433;51.292;6.868;2022-09-09T12:50:01;2.13;;;0.90;;
33074;SDS011;19433;51.292;6.868;2022-09-09T12:52:31;1.23;;;0.60;;
33074;SDS011;19433;51.292;6.868;2022-09-09T12:55:01;0.90;;;0.60;;
33074;SDS011;19433;51.292;6.868;2022-09-09T12:57:31;2.40;;;0.97;;
33074;SDS011;19433;51.292;6.868;2022-09-09T13:00:34;0.83;;;0.70;;
33074;SDS011;19433;51.292;6.868;2022-09-09T13:02:56;1.50;;;0.70;;
33074;SDS011;19433;51.292;6.868;2022-09-09T13:05:28;1.27;;;0.67;;
33074;SDS011;19433;51.292;6.868;2022-09-09T13:08:06;1.40;;;0.60;;
33074;SDS011;19433;51.292;6.868;2022-09-09T13:10:43;1.10;;;0.70;;
33074;SDS011;19433;51.292;6.868;2022-09-09T13:13:43;0.80;;;0.67;;
33074;SDS011;19433;51.292;6.868;2022-09-09T13:16:22;3.17;;;1.00;;
33074;SDS011;19433;51.292;6.868;2022-09-09T13:18:50;1.47;;;0.80;;
33074;SDS011;19433;51.292;6.868;2022-09-09T13:21:16;1.03;;;0.60;;
33074;SDS011;19433;51.292;6.868;2022-09-09T13:23:42;1.43;;;0.93;;
33074;SDS011;19433;51.292;6.868;2022-09-09T13:26:21;2.00;;;0.90;;
33074;SDS011;19433;51.292;6.868;2022-09-09T13:28:51;3.63;;;0.80;;
33074;SDS011;19433;51.292;6.868;2022-09-09T13:31:20;3.00;;;1.00;;
33074;SDS011;19433;51.292;6.868;2022-09-09T13:33:49;6.20;;;1.10;;
33074;SDS011;19433;51.292;6.868;2022-09-09T13:36:15;2.27;;;0.93;;
33074;SDS011;19433;51.292;6.868;2022-09-09T13:38:53;1.57;;;1.13;;
33074;SDS011;19433;51.292;6.868;2022-09-09T13:41:24;1.10;;;0.90;;
33074;SDS011;19433;51.292;6.868;2022-09-09T13:43:55;1.80;;;0.90;;
33074;SDS011;19433;51.292;6.868;2022-09-09T13:46:42;0.73;;;0.60;;
33074;SDS011;19433;51.292;6.868;2022-09-09T13:51:37;1.90;;;0.90;;
33074;SDS011;19433;51.292;6.868;2022-09-09T13:54:04;1.60;;;0.70;;
33074;SDS011;19433;51.292;6.868;2022-09-09T13:56:32;1.30;;;0.93;;
33074;SDS011;19433;51.292;6.868;2022-09-09T13:59:01;0.90;;;0.70;;
33074;SDS011;19433;51.292;6.868;2022-09-09T14:01:28;0.80;;;0.80;;
33074;SDS011;19433;51.292;6.868;2022-09-09T14:03:53;2.10;;;1.07;;
33074;SDS011;19433;51.292;6.868;2022-09-09T14:06:19;0.80;;;0.60;;
33074;SDS011;19433;51.292;6.868;2022-09-09T14:08:46;1.90;;;0.70;;
33074;SDS011;19433;51.292;6.868;2022-09-09T14:11:12;1.80;;;0.90;;
33074;SDS011;19433;51.292;6.868;2022-09-09T14:13:38;1.73;;;0.90;;
33074;SDS011;19433;51.292;6.868;2022-09-09T14:16:03;0.80;;;0.80;;
33074;SDS011;19433;51.292;6.868;2022-09-09T14:18:29;2.20;;;0.80;;
33074;SDS011;19433;51.292;6.868;2022-09-09T14:20:54;1.10;;;0.60;;
33074;SDS011;19433;51.292;6.868;2022-09-09T14:23:20;1.20;;;0.77;;
33074;SDS011;19433;51.292;6.868;2022-09-09T14:25:46;1.20;;;0.90;;
33074;SDS011;19433;51.292;6.868;2022-09-09T14:28:12;1.50;;;0.67;;
33074;SDS011;19433;51.292;6.868;2022-09-09T14:30:41;1.50;;;0.80;;
33074;SDS011;19433;51.292;6.868;2022-09-09T14:33:09;2.73;;;0.97;;
33074;SDS011;19433;51.292;6.868;2022-09-09T14:35:38;0.97;;;0.80;;
33074;SDS011;19433;51.292;6.868;2022-09-09T14:38:05;2.87;;;0.97;;
33074;SDS011;19433;51.292;6.868;2022-09-09T14:40:30;0.93;;;0.70;;
33074;SDS011;19433;51.292;6.868;2022-09-09T14:42:56;1.60;;;0.83;;
33074;SDS011;19433;51.292;6.868;2022-09-09T14:45:22;1.40;;;0.53;;
33074;SDS011;19433;51.292;6.868;2022-09-09T14:47:49;0.60;;;0.57;;
33074;SDS011;19433;51.292;6.868;2022-09-09T14:50:15;0.50;;;0.40;;
33074;SDS011;19433;51.292;6.868;2022-09-09T14:52:41;0.93;;;0.40;;
33074;SDS011;19433;51.292;6.868;2022-09-09T14:55:06;1.07;;;0.60;;
33074;SDS011;19433;51.292;6.868;2022-09-09T14:57:32;1.47;;;0.60;;
33074;SDS011;19433;51.292;6.868;2022-09-09T14:59:57;1.47;;;0.80;;
33074;SDS011;19433;51.292;6.868;2022-09-09T15:02:23;1.10;;;0.60;;
33074;SDS011;19433;51.292;6.868;2022-09-09T15:04:48;0.93;;;0.67;;
33074;SDS011;19433;51.292;6.868;2022-09-09T15:07:15;2.93;;;0.90;;
33074;SDS011;19433;51.292;6.868;2022-09-09T15:09:41;0.60;;;0.60;;
33074;SDS011;19433;51.292;6.868;2022-09-09T15:12:06;2.60;;;0.60;;
33074;SDS011;19433;51.292;6.868;2022-09-09T15:14:32;1.33;;;0.70;;
33074;SDS011;19433;51.292;6.868;2022-09-09T15:16:57;1.00;;;0.73;;
33074;SDS011;19433;51.292;6.868;2022-09-09T15:19:25;1.63;;;0.77;;
33074;SDS011;19433;51.292;6.868;2022-09-09T15:21:50;0.80;;;0.80;;
33074;SDS011;19433;51.292;6.868;2022-09-09T15:24:15;1.00;;;0.80;;
33074;SDS011;19433;51.292;6.868;2022-09-09T15:26:41;0.90;;;0.80;;
33074;SDS011;19433;51.292;6.868;2022-09-09T15:29:06;1.30;;;0.63;;
33074;SDS011;19433;51.292;6.868;2022-09-09T15:31:32;0.73;;;0.70;;
33074;SDS011;19433;51.292;6.868;2022-09-09T15:34:12;0.77;;;0.77;;
33074;SDS011;19433;51.292;6.868;2022-09-09T15:36:42;0.70;;;0.50;;
33074;SDS011;19433;51.292;6.868;2022-09-09T15:39:12;1.37;;;0.70;;
33074;SDS011;19433;51.292;6.868;2022-09-09T15:41:40;0.87;;;0.70;;
33074;SDS011;19433;51.292;6.868;2022-09-09T15:44:07;0.60;;;0.60;;
33074;SDS011;19433;51.292;6.868;2022-09-09T15:46:35;3.03;;;1.03;;
33074;SDS011;19433;51.292;6.868;2022-09-09T15:49:09;0.80;;;0.80;;
33074;SDS011;19433;51.292;6.868;2022-09-09T15:51:41;2.03;;;0.77;;
33074;SDS011;19433;51.292;6.868;2022-09-09T15:54:07;1.00;;;0.90;;
33074;SDS011;19433;51.292;6.868;2022-09-09T15:56:34;1.63;;;0.90;;
33074;SDS011;19433;51.292;6.868;2022-09-09T15:58:59;0.87;;;0.80;;
33074;SDS011;19433;51.292;6.868;2022-09-09T16:01:27;1.17;;;0.80;;
33074;SDS011;19433;51.292;6.868;2022-09-09T16:03:53;0.80;;;0.70;;
33074;SDS011;19433;51.292;6.868;2022-09-09T16:06:20;4.30;;;0.90;;
33074;SDS011;19433;51.292;6.868;2022-09-09T16:08:48;1.33;;;1.20;;
33074;SDS011;19433;51.292;6.868;2022-09-09T16:11:19;1.73;;;1.07;;
33074;SDS011;19433;51.292;6.868;2022-09-09T16:13:49;1.20;;;0.90;;
33074;SDS011;19433;51.292;6.868;2022-09-09T16:16:16;2.23;;;1.20;;
33074;SDS011;19433;51.292;6.868;2022-09-09T16:18:48;2.77;;;1.60;;
33074;SDS011;19433;51.292;6.868;2022-09-09T16:21:18;1.17;;;1.00;;
33074;SDS011;19433;51.292;6.868;2022-09-09T16:23:45;3.70;;;1.30;;
33074;SDS011;19433;51.292;6.868;2022-09-09T16:26:11;1.40;;;1.30;;
33074;SDS011;19433;51.292;6.868;2022-09-09T16:28:38;1.90;;;1.10;;
33074;SDS011;19433;51.292;6.868;2022-09-09T16:31:05;2.13;;;1.03;;
33074;SDS011;19433;51.292;6.868;2022-09-09T16:33:35;1.67;;;0.80;;
33074;SDS011;19433;51.292;6.868;2022-09-09T16:36:06;2.70;;;0.97;;
33074;SDS011;19433;51.292;6.868;2022-09-09T16:38:37;0.90;;;0.90;;
33074;SDS011;19433;51.292;6.868;2022-09-09T16:41:02;1.40;;;1.20;;
33074;SDS011;19433;51.292;6.868;2022-09-09T16:43:33;3.90;;;0.83;;